KBTP

Pittsburgh / Butler Regional Airport

Butler, Pennsylvania, USA
METAR KBTP 141329Z AUTO 00000KT 6SM -RA BR FEW007 BKN026 OVC050 19/18 A3002 RMK AO2 RAB18 P0003
Observed Flight Rules
Aug-14 @ 13:29 UTC (13 minutes ago) Marginal Visual Flight Rules
Visibility Clouds Conditions
6 miles
  • Few at 700' AGL
  • Broken at 2,600' AGL
  • Overcast at 5,000' AGL
  • Light Rain
  • Mist
Temperatures Readings Precipitation
Current 19°C / 66°F
Dewpoint 18°C / 64°F
Humidity 94%
Altimeter 30.02" Hg
Pressure 1017 hPa
Elevation 380
Current Rain 0.03
METAR KBTP 141329Z AUTO 00000KT 6SM -RA BR FEW007 BKN026 OVC050 19/18 A3002 RMK AO2 RAB18 P0003
Observed Flight Rules
Aug-14 @ 13:29 UTC
(13 minutes ago)
MVFR
Clouds
  • Few at 700' AGL
  • Broken at 2,600' AGL
  • Overcast at 5,000' AGL
Conditions
  • Light Rain
  • Mist
Temperature Dewpoint
19°C / 66°F 18°C / 64°F
Humidity Altimeter Pressure
94% 30.02" Hg 1017 hPa
Current Rain
0.03